Time,TemperatureF,DewpointF,PressureIn,WindDirection,WindDirectionDegrees,WindSpeedMPH,WindSpeedGustMPH,Humidity,HourlyPrecipIn,Conditions,Clouds,dailyrainin,SoftwareType,DateUTC
2013-03-16 00:00:00,41.2,18.9,29.84,SSE,149,4.5,5.2,40,0.00,,---,0.00,VWS V14.01,2013-03-16 04:00:00,
2013-03-16 00:01:00,41.2,18.9,29.84,SSE,155,5.8,5.8,40,0.00,,---,0.00,VWS V14.01,2013-03-16 04:01:00,
2013-03-16 00:02:00,41.0,18.7,29.84,SE,145,7.1,8.4,40,0.00,,---,0.00,VWS V14.01,2013-03-16 04:02:00,
2013-03-16 00:07:00,40.8,19.4,29.84,SE,134,5.8,7.8,42,0.00,,---,0.00,VWS V14.01,2013-03-16 04:07:00,
2013-03-16 00:12:00,40.8,19.4,29.84,SE,146,5.2,5.2,42,0.00,,---,0.00,VWS V14.01,2013-03-16 04:12:00,
2013-03-16 00:17:00,41.0,19.5,29.84,SSE,148,5.8,5.8,42,0.00,,---,0.00,VWS V14.01,2013-03-16 04:17:00,
2013-03-16 00:22:00,40.8,20.1,29.84,South,172,0.0,0.0,43,0.00,,---,0.00,VWS V14.01,2013-03-16 04:22:00,
2013-03-16 00:28:00,40.6,20.0,29.84,SE,141,5.2,5.2,43,0.00,,---,0.00,VWS V14.01,2013-03-16 04:28:00,
2013-03-16 00:33:00,40.6,20.7,29.84,SSE,150,7.1,7.8,44,0.00,,---,0.00,VWS V14.01,2013-03-16 04:33:00,
2013-03-16 00:38:00,40.5,20.5,29.84,SE,146,4.5,4.5,44,0.00,,---,0.00,VWS V14.01,2013-03-16 04:38:00,
2013-03-16 00:43:00,40.5,20.5,29.84,SE,139,0.0,3.2,44,0.00,,---,0.00,VWS V14.01,2013-03-16 04:43:00,
2013-03-16 00:48:00,40.3,20.4,29.84,SSE,148,3.2,3.2,44,0.00,,---,0.00,VWS V14.01,2013-03-16 04:48:00,
2013-03-16 00:53:00,39.9,20.8,29.84,SE,133,0.0,0.0,46,0.00,,---,0.00,VWS V14.01,2013-03-16 04:53:00,
2013-03-16 00:58:00,39.7,20.6,29.84,SE,144,3.9,4.5,46,0.00,,---,0.00,VWS V14.01,2013-03-16 04:58:00,
2013-03-16 01:03:00,39.7,20.6,29.84,SE,145,3.2,3.2,46,0.00,,---,0.00,VWS V14.01,2013-03-16 05:03:00,
2013-03-16 01:08:00,39.7,20.6,29.84,SE,145,0.0,0.0,46,0.00,,---,0.00,VWS V14.01,2013-03-16 05:08:00,
2013-03-16 01:13:00,39.6,21.1,29.84,SSE,148,0.0,0.0,47,0.00,,---,0.00,VWS V14.01,2013-03-16 05:13:00,
2013-03-16 01:18:00,39.9,22.1,29.84,WNW,299,0.0,4.5,49,0.00,,---,0.00,VWS V14.01,2013-03-16 05:18:00,
2013-03-16 01:23:00,41.4,24.1,29.84,North,353,0.0,0.0,50,0.00,,---,0.00,VWS V14.01,2013-03-16 05:23:00,
2013-03-16 01:28:00,42.8,25.5,29.84,WNW,298,0.0,3.2,50,0.00,,---,0.00,VWS V14.01,2013-03-16 05:28:00,
2013-03-16 01:34:00,44.4,27.6,29.84,NNW,327,0.0,3.9,51,0.00,,---,0.00,VWS V14.01,2013-03-16 05:34:00,
2013-03-16 01:39:00,45.9,28.3,29.84,NNW,340,3.9,5.2,50,0.00,,---,0.00,VWS V14.01,2013-03-16 05:39:00,
2013-03-16 01:44:00,46.8,28.5,29.84,NNW,334,4.5,7.1,49,0.00,,---,0.00,VWS V14.01,2013-03-16 05:44:00,
2013-03-16 01:50:00,47.8,28.7,29.84,NNW,343,3.2,5.8,47,0.00,,---,0.00,VWS V14.01,2013-03-16 05:50:00,
2013-03-16 01:55:00,48.2,28.3,29.84,North,0,3.9,3.9,46,0.00,,---,0.00,VWS V14.01,2013-03-16 05:55:00,
2013-03-16 02:00:00,48.6,28.7,29.84,NNW,342,7.8,7.8,46,0.00,,---,0.00,VWS V14.01,2013-03-16 06:00:00,
2013-03-16 02:05:00,48.7,28.1,29.84,NNW,337,4.5,7.8,44,0.00,,---,0.00,VWS V14.01,2013-03-16 06:05:00,
2013-03-16 02:10:00,48.7,28.1,29.84,West,271,0.0,4.5,44,0.00,,---,0.00,VWS V14.01,2013-03-16 06:10:00,
2013-03-16 02:15:00,48.7,27.3,29.81,NW,318,3.2,3.2,43,0.00,,---,0.00,VWS V14.01,2013-03-16 06:15:00,
2013-03-16 02:20:00,48.7,27.3,29.81,NW,325,0.0,0.0,43,0.00,,---,0.00,VWS V14.01,2013-03-16 06:20:00,
2013-03-16 02:25:00,48.6,27.1,29.81,NW,311,0.0,0.0,43,0.00,,---,0.00,VWS V14.01,2013-03-16 06:25:00,
2013-03-16 02:30:00,48.6,27.1,29.81,WNW,301,0.0,0.0,43,0.00,,---,0.00,VWS V14.01,2013-03-16 06:30:00,
2013-03-16 02:35:00,48.4,27.0,29.81,WNW,301,0.0,0.0,43,0.00,,---,0.00,VWS V14.01,2013-03-16 06:35:00,
2013-03-16 02:40:00,48.0,26.7,29.81,WNW,301,0.0,0.0,43,0.00,,---,0.00,VWS V14.01,2013-03-16 06:40:00,
2013-03-16 02:45:00,47.3,26.0,29.81,WNW,290,0.0,0.0,43,0.00,,---,0.00,VWS V14.01,2013-03-16 06:45:00,
2013-03-16 02:50:00,46.6,25.4,29.81,South,181,0.0,3.2,43,0.00,,---,0.00,VWS V14.01,2013-03-16 06:50:00,
2013-03-16 02:56:00,45.9,24.7,29.81,South,179,0.0,0.0,43,0.00,,---,0.00,VWS V14.01,2013-03-16 06:56:00,
2013-03-16 03:01:00,45.1,24.0,29.81,South,179,0.0,0.0,43,0.00,,---,0.00,VWS V14.01,2013-03-16 07:01:00,
2013-03-16 03:06:00,44.6,23.5,29.81,SSW,193,0.0,0.0,43,0.00,,---,0.00,VWS V14.01,2013-03-16 07:06:00,
2013-03-16 03:11:00,44.1,23.8,29.81,SSE,160,4.5,4.5,44,0.00,,---,0.00,VWS V14.01,2013-03-16 07:11:00,
2013-03-16 03:16:00,43.5,23.3,29.81,SSE,149,5.2,5.2,44,0.00,,---,0.00,VWS V14.01,2013-03-16 07:16:00,
2013-03-16 03:21:00,43.0,22.8,29.81,SE,142,3.9,4.5,44,0.00,,---,0.00,VWS V14.01,2013-03-16 07:21:00,
2013-03-16 03:26:00,42.6,23.2,29.81,SE,138,5.2,5.2,46,0.00,,---,0.00,VWS V14.01,2013-03-16 07:26:00,
2013-03-16 03:31:00,42.3,22.9,29.81,SE,144,4.5,4.5,46,0.00,,---,0.00,VWS V14.01,2013-03-16 07:31:00,
2013-03-16 03:36:00,41.9,22.6,29.81,SE,144,3.9,4.5,46,0.00,,---,0.00,VWS V14.01,2013-03-16 07:36:00,
2013-03-16 03:41:00,41.7,23.1,29.81,SSE,147,4.5,5.2,47,0.00,,---,0.00,VWS V14.01,2013-03-16 07:41:00,
2013-03-16 03:46:00,41.4,22.8,29.81,SE,146,5.2,5.2,47,0.00,,---,0.00,VWS V14.01,2013-03-16 07:46:00,
2013-03-16 03:51:00,41.0,22.5,29.81,SE,144,7.1,7.1,47,0.00,,---,0.00,VWS V14.01,2013-03-16 07:51:00,
2013-03-16 03:57:00,40.6,22.8,29.81,SSE,151,0.0,0.0,49,0.00,,---,0.00,VWS V14.01,2013-03-16 07:57:00,
2013-03-16 04:02:00,40.5,23.3,29.81,SSE,149,5.2,5.8,50,0.00,,---,0.00,VWS V14.01,2013-03-16 08:02:00,
2013-03-16 04:07:00,40.1,23.0,29.81,SSE,158,4.5,5.8,50,0.00,,---,0.00,VWS V14.01,2013-03-16 08:07:00,
2013-03-16 04:12:00,39.9,23.5,29.81,SE,145,5.8,5.8,51,0.00,,---,0.00,VWS V14.01,2013-03-16 08:12:00,
2013-03-16 04:17:00,39.6,23.1,29.81,SE,146,5.8,5.8,51,0.00,,---,0.00,VWS V14.01,2013-03-16 08:17:00,
2013-03-16 04:22:00,39.4,23.6,29.81,SSE,147,7.8,7.8,53,0.00,,---,0.00,VWS V14.01,2013-03-16 08:22:00,
2013-03-16 04:27:00,39.2,23.4,29.78,SE,144,7.8,7.8,53,0.00,,---,0.00,VWS V14.01,2013-03-16 08:27:00,
2013-03-16 04:32:00,39.0,23.9,29.78,SE,138,5.8,5.8,54,0.00,,---,0.00,VWS V14.01,2013-03-16 08:32:00,
2013-03-16 04:37:00,39.0,23.9,29.78,SE,142,5.8,5.8,54,0.00,,---,0.00,VWS V14.01,2013-03-16 08:37:00,
2013-03-16 04:42:00,39.0,23.9,29.78,South,180,0.0,5.2,54,0.00,,---,0.00,VWS V14.01,2013-03-16 08:42:00,
2013-03-16 04:47:00,38.8,23.7,29.78,SSE,153,5.2,5.8,54,0.00,,---,0.00,VWS V14.01,2013-03-16 08:47:00,
2013-03-16 04:52:00,38.8,23.7,29.78,SE,146,0.0,3.2,54,0.00,,---,0.00,VWS V14.01,2013-03-16 08:52:00,
2013-03-16 04:57:00,38.7,23.6,29.78,SE,146,3.9,3.9,54,0.00,,---,0.00,VWS V14.01,2013-03-16 08:57:00,
2013-03-16 05:02:00,38.5,23.4,29.78,SSE,149,5.8,5.8,54,0.00,,---,0.00,VWS V14.01,2013-03-16 09:02:00,
2013-03-16 05:07:00,38.1,23.0,29.78,SSE,166,3.9,5.2,54,0.00,,---,0.00,VWS V14.01,2013-03-16 09:07:00,
2013-03-16 05:12:00,38.1,23.6,29.78,SSE,161,5.8,6.5,56,0.00,,---,0.00,VWS V14.01,2013-03-16 09:12:00,
2013-03-16 05:17:00,38.3,23.8,29.78,SE,142,5.8,5.8,56,0.00,,---,0.00,VWS V14.01,2013-03-16 09:17:00,
2013-03-16 05:22:00,38.5,24.0,29.78,SSE,156,4.5,5.2,56,0.00,,---,0.00,VWS V14.01,2013-03-16 09:22:00,
2013-03-16 05:27:00,38.7,24.2,29.78,SSE,168,0.0,0.0,56,0.00,,---,0.00,VWS V14.01,2013-03-16 09:27:00,
2013-03-16 05:32:00,38.7,24.2,29.78,SSE,168,0.0,0.0,56,0.00,,---,0.00,VWS V14.01,2013-03-16 09:32:00,
2013-03-16 05:37:00,38.5,24.0,29.78,SSE,168,0.0,0.0,56,0.00,,---,0.00,VWS V14.01,2013-03-16 09:37:00,
2013-03-16 05:42:00,38.3,23.8,29.81,SSE,168,0.0,0.0,56,0.00,,---,0.00,VWS V14.01,2013-03-16 09:42:00,
2013-03-16 05:47:00,38.3,23.8,29.81,SSE,168,0.0,0.0,56,0.00,,---,0.00,VWS V14.01,2013-03-16 09:47:00,
2013-03-16 05:52:00,38.1,23.6,29.81,SSE,168,3.2,3.9,56,0.00,,---,0.00,VWS V14.01,2013-03-16 09:52:00,
2013-03-16 05:57:00,38.1,23.6,29.81,SSE,168,0.0,0.0,56,0.00,,---,0.00,VWS V14.01,2013-03-16 09:57:00,
2013-03-16 06:02:00,38.1,24.2,29.81,SSE,168,0.0,0.0,57,0.00,,---,0.00,VWS V14.01,2013-03-16 10:02:00,
2013-03-16 06:07:00,38.1,24.2,29.81,SSE,168,0.0,0.0,57,0.00,,---,0.00,VWS V14.01,2013-03-16 10:07:00,
2013-03-16 06:12:00,38.1,24.2,29.78,SSE,168,0.0,0.0,57,0.00,,---,0.00,VWS V14.01,2013-03-16 10:12:00,
2013-03-16 06:17:00,38.1,24.2,29.78,South,173,0.0,0.0,57,0.00,,---,0.00,VWS V14.01,2013-03-16 10:17:00,
2013-03-16 06:22:00,38.3,24.4,29.78,SSE,153,4.5,4.5,57,0.00,,---,0.00,VWS V14.01,2013-03-16 10:22:00,
2013-03-16 06:27:00,38.7,24.8,29.78,SSE,160,0.0,0.0,57,0.00,,---,0.00,VWS V14.01,2013-03-16 10:27:00,
2013-03-16 06:33:00,38.8,25.5,29.78,South,169,0.0,0.0,58,0.00,,---,0.00,VWS V14.01,2013-03-16 10:33:00,
2013-03-16 06:38:00,39.2,25.8,29.78,South,169,0.0,0.0,58,0.00,,---,0.00,VWS V14.01,2013-03-16 10:38:00,
2013-03-16 06:43:00,39.6,26.2,29.81,East,97,0.0,0.0,58,0.00,,---,0.00,VWS V14.01,2013-03-16 10:43:00,
2013-03-16 06:48:00,39.7,26.3,29.81,East,97,0.0,0.0,58,0.00,,---,0.00,VWS V14.01,2013-03-16 10:48:00,
2013-03-16 06:53:00,39.7,26.3,29.81,ESE,121,3.9,3.9,58,0.00,,---,0.00,VWS V14.01,2013-03-16 10:53:00,
2013-03-16 06:58:00,39.9,26.5,29.84,SE,141,3.2,3.9,58,0.00,,---,0.00,VWS V14.01,2013-03-16 10:58:00,
2013-03-16 07:03:00,40.1,27.2,29.84,SE,140,4.5,4.5,60,0.04,,---,0.04,VWS V14.01,2013-03-16 11:03:00,
2013-03-16 07:08:00,40.3,27.4,29.84,SE,145,3.9,5.8,60,0.04,,---,0.04,VWS V14.01,2013-03-16 11:08:00,
2013-03-16 07:13:00,40.3,27.4,29.81,SE,144,5.8,5.8,60,0.04,,---,0.04,VWS V14.01,2013-03-16 11:13:00,
2013-03-16 07:18:00,40.3,28.0,29.81,SSE,147,5.2,5.2,61,0.04,,---,0.04,VWS V14.01,2013-03-16 11:18:00,
2013-03-16 07:23:00,40.3,28.0,29.81,SE,142,3.2,3.2,61,0.04,,---,0.04,VWS V14.01,2013-03-16 11:23:00,
2013-03-16 07:28:00,40.3,28.0,29.81,SE,142,0.0,0.0,61,0.04,,---,0.04,VWS V14.01,2013-03-16 11:28:00,
2013-03-16 07:33:00,40.3,28.5,29.81,SE,142,0.0,0.0,63,0.04,,---,0.04,VWS V14.01,2013-03-16 11:33:00,
2013-03-16 07:38:00,40.3,28.5,29.81,SE,142,0.0,0.0,63,0.04,,---,0.04,VWS V14.01,2013-03-16 11:38:00,
2013-03-16 07:43:00,40.3,28.5,29.81,SE,142,0.0,0.0,63,0.04,,---,0.04,VWS V14.01,2013-03-16 11:43:00,
2013-03-16 07:48:00,40.5,29.2,29.81,SE,142,0.0,0.0,64,0.04,,---,0.04,VWS V14.01,2013-03-16 11:48:00,
2013-03-16 07:53:00,40.5,29.2,29.81,SE,142,0.0,0.0,64,0.04,,---,0.04,VWS V14.01,2013-03-16 11:53:00,
2013-03-16 07:58:00,40.6,29.9,29.81,SE,142,0.0,0.0,65,0.04,,---,0.04,VWS V14.01,2013-03-16 11:58:00,
2013-03-16 08:03:00,40.6,29.9,29.81,SE,142,0.0,0.0,65,0.00,,---,0.04,VWS V14.01,2013-03-16 12:03:00,
2013-03-16 08:08:00,40.8,30.1,29.81,SE,142,0.0,0.0,65,0.00,,---,0.04,VWS V14.01,2013-03-16 12:08:00,
2013-03-16 08:13:00,41.0,30.8,29.81,SE,142,0.0,0.0,67,0.00,,---,0.04,VWS V14.01,2013-03-16 12:13:00,
2013-03-16 08:18:00,41.2,31.0,29.81,SE,146,3.2,3.2,67,0.00,,---,0.04,VWS V14.01,2013-03-16 12:18:00,
2013-03-16 08:23:00,41.4,31.1,29.81,South,169,0.0,5.8,67,0.00,,---,0.04,VWS V14.01,2013-03-16 12:23:00,
2013-03-16 08:28:00,41.5,31.3,29.81,SSE,152,3.9,4.5,67,0.00,,---,0.04,VWS V14.01,2013-03-16 12:28:00,
2013-03-16 08:33:00,41.9,32.2,29.81,SSE,160,0.0,0.0,68,0.00,,---,0.04,VWS V14.01,2013-03-16 12:33:00,
2013-03-16 08:38:00,42.1,32.3,29.81,SSE,160,0.0,0.0,68,0.00,,---,0.04,VWS V14.01,2013-03-16 12:38:00,
2013-03-16 08:43:00,42.4,32.7,29.81,SSE,166,0.0,3.2,68,0.00,,---,0.04,VWS V14.01,2013-03-16 12:43:00,
2013-03-16 08:48:00,42.6,32.8,29.81,SSE,166,0.0,0.0,68,0.00,,---,0.04,VWS V14.01,2013-03-16 12:48:00,
2013-03-16 08:53:00,42.8,33.0,29.81,SSE,152,0.0,4.5,68,0.00,,---,0.04,VWS V14.01,2013-03-16 12:53:00,
2013-03-16 08:58:00,43.0,33.2,29.78,SSE,152,0.0,0.0,68,0.00,,---,0.04,VWS V14.01,2013-03-16 12:58:00,
2013-03-16 09:03:00,43.2,33.9,29.78,SSE,152,0.0,0.0,70,0.00,,---,0.04,VWS V14.01,2013-03-16 13:03:00,
2013-03-16 09:08:00,43.3,34.0,29.78,SSE,152,0.0,0.0,70,0.00,,---,0.04,VWS V14.01,2013-03-16 13:08:00,
2013-03-16 09:13:00,43.3,34.0,29.78,SSE,152,0.0,0.0,70,0.00,,---,0.04,VWS V14.01,2013-03-16 13:13:00,
2013-03-16 09:18:00,43.3,34.0,29.78,SSE,152,0.0,0.0,70,0.00,,---,0.04,VWS V14.01,2013-03-16 13:18:00,
2013-03-16 09:24:00,43.5,34.2,29.78,SSE,152,0.0,0.0,70,0.00,,---,0.04,VWS V14.01,2013-03-16 13:24:00,
2013-03-16 09:29:00,43.7,34.9,29.78,SSE,152,0.0,0.0,71,0.00,,---,0.04,VWS V14.01,2013-03-16 13:29:00,
2013-03-16 09:34:00,43.7,34.9,29.78,SSE,152,0.0,0.0,71,0.00,,---,0.04,VWS V14.01,2013-03-16 13:34:00,
2013-03-16 09:39:00,44.1,35.2,29.78,SSE,152,0.0,0.0,71,0.00,,---,0.04,VWS V14.01,2013-03-16 13:39:00,
2013-03-16 09:44:00,44.4,36.1,29.78,SSE,152,0.0,0.0,72,0.00,,---,0.04,VWS V14.01,2013-03-16 13:44:00,
2013-03-16 09:49:00,45.0,36.6,29.78,SSE,152,0.0,0.0,72,0.00,,---,0.04,VWS V14.01,2013-03-16 13:49:00,
2013-03-16 09:54:00,45.7,37.3,29.78,SSE,152,0.0,3.2,72,0.00,,---,0.04,VWS V14.01,2013-03-16 13:54:00,
2013-03-16 09:59:00,46.2,38.3,29.78,SSE,152,0.0,0.0,74,0.00,,---,0.04,VWS V14.01,2013-03-16 13:59:00,
2013-03-16 10:04:00,46.6,38.2,29.78,SSE,152,0.0,0.0,72,0.00,,---,0.04,VWS V14.01,2013-03-16 14:04:00,
2013-03-16 10:09:00,47.1,39.2,29.78,SSE,152,0.0,0.0,74,0.00,,---,0.04,VWS V14.01,2013-03-16 14:09:00,
2013-03-16 10:14:00,47.3,39.3,29.78,SSE,152,0.0,0.0,74,0.00,,---,0.04,VWS V14.01,2013-03-16 14:14:00,
2013-03-16 10:19:00,47.7,39.7,29.78,SSE,152,0.0,0.0,74,0.00,,---,0.04,VWS V14.01,2013-03-16 14:19:00,
2013-03-16 10:24:00,48.0,40.0,29.78,SSE,152,0.0,0.0,74,0.00,,---,0.04,VWS V14.01,2013-03-16 14:24:00,
2013-03-16 10:29:00,48.2,40.2,29.75,SSE,151,0.0,0.0,74,0.00,,---,0.04,VWS V14.01,2013-03-16 14:29:00,
2013-03-16 10:34:00,48.4,40.8,29.75,West,260,0.0,0.0,75,0.00,,---,0.04,VWS V14.01,2013-03-16 14:34:00,
2013-03-16 10:40:00,48.7,41.7,29.75,West,260,0.0,0.0,76,0.00,,---,0.04,VWS V14.01,2013-03-16 14:40:00,
2013-03-16 10:45:00,49.3,42.2,29.75,West,266,0.0,0.0,76,0.00,,---,0.04,VWS V14.01,2013-03-16 14:45:00,
2013-03-16 10:50:00,49.6,42.5,29.75,NW,316,0.0,0.0,76,0.00,,---,0.04,VWS V14.01,2013-03-16 14:50:00,
2013-03-16 10:55:00,50.0,42.9,29.75,WSW,246,0.0,0.0,76,0.00,,---,0.04,VWS V14.01,2013-03-16 14:55:00,
2013-03-16 11:00:00,50.2,43.1,29.75,WSW,246,0.0,0.0,76,0.00,,---,0.04,VWS V14.01,2013-03-16 15:00:00,
2013-03-16 11:05:00,50.5,43.4,29.75,WSW,246,0.0,0.0,76,0.00,,---,0.04,VWS V14.01,2013-03-16 15:05:00,
2013-03-16 11:10:00,50.7,43.6,29.75,WSW,246,0.0,0.0,76,0.00,,---,0.04,VWS V14.01,2013-03-16 15:10:00,
2013-03-16 11:15:00,51.3,44.6,29.75,WSW,246,0.0,0.0,78,0.00,,---,0.04,VWS V14.01,2013-03-16 15:15:00,
2013-03-16 11:20:00,51.6,44.9,29.75,NW,319,0.0,0.0,78,0.00,,---,0.04,VWS V14.01,2013-03-16 15:20:00,
2013-03-16 11:25:00,52.0,44.8,29.75,NNW,327,0.0,0.0,76,0.00,,---,0.04,VWS V14.01,2013-03-16 15:25:00,
2013-03-16 11:30:00,52.3,45.2,29.75,NNW,327,0.0,0.0,76,0.00,,---,0.04,VWS V14.01,2013-03-16 15:30:00,
2013-03-16 11:35:00,52.5,45.3,29.75,NW,316,0.0,0.0,76,0.00,,---,0.04,VWS V14.01,2013-03-16 15:35:00,
2013-03-16 11:40:00,52.7,45.0,29.75,NW,316,0.0,0.0,75,0.00,,---,0.04,VWS V14.01,2013-03-16 15:40:00,
2013-03-16 11:45:00,52.9,45.2,29.75,NW,316,0.0,0.0,75,0.00,,---,0.04,VWS V14.01,2013-03-16 15:45:00,
2013-03-16 11:50:00,52.9,45.2,29.75,NNW,343,3.9,4.5,75,0.00,,---,0.04,VWS V14.01,2013-03-16 15:50:00,
2013-03-16 11:55:00,53.1,45.4,29.75,North,350,0.0,0.0,75,0.00,,---,0.04,VWS V14.01,2013-03-16 15:55:00,
2013-03-16 12:00:00,53.2,45.1,29.75,North,350,0.0,0.0,74,0.00,,---,0.04,VWS V14.01,2013-03-16 16:00:00,
2013-03-16 12:05:00,53.2,45.1,29.75,North,350,0.0,0.0,74,0.00,,---,0.04,VWS V14.01,2013-03-16 16:05:00,
2013-03-16 12:10:00,53.4,45.2,29.75,NNW,327,0.0,0.0,74,0.00,,---,0.04,VWS V14.01,2013-03-16 16:10:00,
2013-03-16 12:15:00,53.8,45.1,29.72,NNW,327,0.0,0.0,72,0.00,,---,0.04,VWS V14.01,2013-03-16 16:15:00,
2013-03-16 12:20:00,53.8,45.1,29.72,NNW,327,0.0,0.0,72,0.00,,---,0.04,VWS V14.01,2013-03-16 16:20:00,
2013-03-16 12:25:00,54.0,45.2,29.72,NNW,327,0.0,0.0,72,0.00,,---,0.04,VWS V14.01,2013-03-16 16:25:00,
2013-03-16 12:30:00,54.1,45.4,29.72,NNW,327,0.0,0.0,72,0.00,,---,0.04,VWS V14.01,2013-03-16 16:30:00,
2013-03-16 12:35:00,54.5,45.8,29.72,NNW,327,0.0,0.0,72,0.00,,---,0.04,VWS V14.01,2013-03-16 16:35:00,
2013-03-16 12:40:00,54.9,46.1,29.72,NNW,327,0.0,0.0,72,0.00,,---,0.04,VWS V14.01,2013-03-16 16:40:00,
2013-03-16 12:45:00,55.4,46.1,29.72,WNW,284,0.0,0.0,71,0.00,,---,0.04,VWS V14.01,2013-03-16 16:45:00,
2013-03-16 12:50:00,55.9,46.6,29.72,SW,216,0.0,0.0,71,0.00,,---,0.04,VWS V14.01,2013-03-16 16:50:00,
2013-03-16 12:55:00,56.3,47.0,29.72,SW,219,0.0,0.0,71,0.00,,---,0.04,VWS V14.01,2013-03-16 16:55:00,
2013-03-16 13:00:00,56.7,46.8,29.72,SSW,204,0.0,0.0,70,0.00,,---,0.04,VWS V14.01,2013-03-16 17:00:00,
2013-03-16 13:05:00,57.0,46.6,29.72,NNW,334,0.0,0.0,68,0.00,,---,0.04,VWS V14.01,2013-03-16 17:05:00,
2013-03-16 13:10:00,57.2,46.2,29.72,NNW,335,0.0,0.0,67,0.00,,---,0.04,VWS V14.01,2013-03-16 17:10:00,
2013-03-16 13:15:00,57.4,46.4,29.72,NNW,339,0.0,0.0,67,0.00,,---,0.04,VWS V14.01,2013-03-16 17:15:00,
2013-03-16 13:20:00,57.4,45.9,29.72,NNW,339,0.0,0.0,65,0.00,,---,0.04,VWS V14.01,2013-03-16 17:20:00,
2013-03-16 13:25:00,57.4,45.9,29.72,SSW,195,0.0,4.5,65,0.00,,---,0.04,VWS V14.01,2013-03-16 17:25:00,
2013-03-16 13:30:00,57.6,46.0,29.72,SSE,154,0.0,5.2,65,0.00,,---,0.04,VWS V14.01,2013-03-16 17:30:00,
2013-03-16 13:35:00,57.7,46.2,29.72,SSE,153,0.0,3.9,65,0.00,,---,0.04,VWS V14.01,2013-03-16 17:35:00,
2013-03-16 13:40:00,58.1,46.5,29.72,SSW,204,0.0,0.0,65,0.00,,---,0.04,VWS V14.01,2013-03-16 17:40:00,
2013-03-16 13:45:00,58.3,46.2,29.72,SSW,203,0.0,0.0,64,0.00,,---,0.04,VWS V14.01,2013-03-16 17:45:00,
2013-03-16 13:50:00,58.6,46.5,29.72,SSW,202,0.0,3.2,64,0.00,,---,0.04,VWS V14.01,2013-03-16 17:50:00,
2013-03-16 13:55:00,58.8,46.7,29.72,SSW,210,0.0,0.0,64,0.00,,---,0.04,VWS V14.01,2013-03-16 17:55:00,
2013-03-16 14:00:00,59.2,47.0,29.72,SW,231,0.0,0.0,64,0.00,,---,0.04,VWS V14.01,2013-03-16 18:00:00,
2013-03-16 14:05:00,59.5,47.3,29.72,South,180,4.5,4.5,64,0.00,,---,0.04,VWS V14.01,2013-03-16 18:05:00,
2013-03-16 14:10:00,60.3,48.0,29.72,West,266,0.0,3.9,64,0.00,,---,0.04,VWS V14.01,2013-03-16 18:10:00,
2013-03-16 14:15:00,60.8,48.0,29.69,SW,230,0.0,5.2,63,0.00,,---,0.04,VWS V14.01,2013-03-16 18:15:00,
2013-03-16 14:20:00,61.2,47.7,29.69,South,190,0.0,0.0,61,0.00,,---,0.04,VWS V14.01,2013-03-16 18:20:00,
2013-03-16 14:25:00,61.7,47.6,29.69,SSW,200,0.0,0.0,60,0.00,,---,0.04,VWS V14.01,2013-03-16 18:25:00,
2013-03-16 14:30:00,62.2,48.1,29.69,WSW,241,5.2,5.8,60,0.00,,---,0.04,VWS V14.01,2013-03-16 18:30:00,
2013-03-16 14:35:00,62.8,47.3,29.69,WSW,237,5.2,5.8,57,0.00,,---,0.04,VWS V14.01,2013-03-16 18:35:00,
2013-03-16 14:40:00,63.1,47.7,29.69,West,274,0.0,3.9,57,0.00,,---,0.04,VWS V14.01,2013-03-16 18:40:00,
2013-03-16 14:45:00,63.9,47.7,29.66,North,6,4.5,5.2,56,0.00,,---,0.04,VWS V14.01,2013-03-16 18:45:00,
2013-03-16 14:50:00,64.4,48.2,29.66,South,184,7.8,7.8,56,0.00,,---,0.04,VWS V14.01,2013-03-16 18:50:00,
2013-03-16 14:55:00,65.1,47.5,29.66,SW,236,0.0,0.0,53,0.00,,---,0.04,VWS V14.01,2013-03-16 18:55:00,
2013-03-16 15:00:00,65.8,47.5,29.66,West,277,7.8,7.8,51,0.00,,---,0.04,VWS V14.01,2013-03-16 19:00:00,
2013-03-16 15:05:00,66.2,47.0,29.66,WNW,301,0.0,0.0,50,0.00,,---,0.04,VWS V14.01,2013-03-16 19:05:00,
2013-03-16 15:11:00,66.7,47.5,29.66,WSW,254,8.4,8.4,50,0.00,,---,0.04,VWS V14.01,2013-03-16 19:11:00,
2013-03-16 15:16:00,66.4,45.7,29.63,SSW,202,7.8,7.8,47,0.00,,---,0.04,VWS V14.01,2013-03-16 19:16:00,
2013-03-16 15:21:00,65.8,46.0,29.63,South,178,5.8,8.4,49,0.00,,---,0.04,VWS V14.01,2013-03-16 19:21:00,
2013-03-16 15:26:00,65.5,45.7,29.63,SE,144,9.1,9.1,49,0.00,,---,0.04,VWS V14.01,2013-03-16 19:26:00,
2013-03-16 15:31:00,65.1,45.3,29.63,South,185,5.2,7.8,49,0.00,,---,0.04,VWS V14.01,2013-03-16 19:31:00,
2013-03-16 15:36:00,64.4,43.9,29.63,South,191,11.0,12.0,47,0.00,,---,0.04,VWS V14.01,2013-03-16 19:36:00,
2013-03-16 15:41:00,63.9,44.2,29.63,ESE,122,5.8,5.8,49,0.00,,---,0.04,VWS V14.01,2013-03-16 19:41:00,
2013-03-16 15:46:00,63.1,43.5,29.63,SE,140,7.1,9.1,49,0.00,,---,0.04,VWS V14.01,2013-03-16 19:46:00,
2013-03-16 15:51:00,62.8,43.2,29.63,East,90,3.9,3.9,49,0.00,,---,0.04,VWS V14.01,2013-03-16 19:51:00,
2013-03-16 15:57:00,62.4,42.8,29.63,SE,136,7.1,8.4,49,0.00,,---,0.04,VWS V14.01,2013-03-16 19:57:00,
2013-03-16 16:02:00,62.2,42.7,29.63,North,0,7.8,9.1,49,0.00,,---,0.04,VWS V14.01,2013-03-16 20:02:00,
2013-03-16 16:07:00,62.2,42.7,29.63,NNE,23,7.8,12.0,49,0.00,,---,0.04,VWS V14.01,2013-03-16 20:07:00,
2013-03-16 16:12:00,62.1,42.5,29.66,North,0,12.6,12.6,49,0.00,,---,0.04,VWS V14.01,2013-03-16 20:12:00,
2013-03-16 16:17:00,61.7,42.9,29.66,NNE,31,9.1,15.2,50,0.00,,---,0.04,VWS V14.01,2013-03-16 20:17:00,
2013-03-16 16:22:00,61.0,42.2,29.66,NNW,346,8.4,8.4,50,0.00,,---,0.04,VWS V14.01,2013-03-16 20:22:00,
2013-03-16 16:28:00,60.3,42.3,29.66,NNE,13,11.7,11.7,51,0.00,,---,0.04,VWS V14.01,2013-03-16 20:28:00,
2013-03-16 16:33:00,59.4,41.5,29.66,NE,51,9.1,9.1,51,0.00,,---,0.04,VWS V14.01,2013-03-16 20:33:00,
2013-03-16 16:38:00,58.6,42.2,29.66,North,3,12.0,12.0,54,0.00,,---,0.04,VWS V14.01,2013-03-16 20:38:00,
2013-03-16 16:43:00,57.9,44.0,29.72,NNE,23,5.8,7.8,60,0.00,,---,0.04,VWS V14.01,2013-03-16 20:43:00,
2013-03-16 16:48:00,57.2,44.0,29.72,NNW,336,3.9,5.8,61,0.04,,---,0.08,VWS V14.01,2013-03-16 20:48:00,
2013-03-16 16:53:00,56.8,44.2,29.72,NW,318,0.0,0.0,63,0.08,,---,0.12,VWS V14.01,2013-03-16 20:53:00,
2013-03-16 16:58:00,56.5,43.9,29.69,South,169,0.0,0.0,63,0.12,,---,0.16,VWS V14.01,2013-03-16 20:58:00,
2013-03-16 17:03:00,56.3,44.3,29.69,WSW,244,0.0,0.0,64,0.12,,---,0.16,VWS V14.01,2013-03-16 21:03:00,
2013-03-16 17:09:00,55.9,44.5,29.69,West,281,0.0,0.0,65,0.16,,---,0.20,VWS V14.01,2013-03-16 21:09:00,
2013-03-16 17:14:00,55.8,44.3,29.69,South,184,0.0,3.2,65,0.16,,---,0.20,VWS V14.01,2013-03-16 21:14:00,
2013-03-16 17:19:00,55.9,45.0,29.69,SSW,199,0.0,0.0,67,0.16,,---,0.20,VWS V14.01,2013-03-16 21:19:00,
2013-03-16 17:24:00,56.3,45.9,29.69,NNW,333,0.0,0.0,68,0.16,,---,0.20,VWS V14.01,2013-03-16 21:24:00,
2013-03-16 17:29:00,56.5,46.6,29.69,NNW,331,0.0,0.0,70,0.16,,---,0.20,VWS V14.01,2013-03-16 21:29:00,
2013-03-16 17:34:00,56.5,46.6,29.69,SW,216,0.0,0.0,70,0.16,,---,0.20,VWS V14.01,2013-03-16 21:34:00,
2013-03-16 17:39:00,56.7,46.8,29.69,SW,227,5.8,5.8,70,0.16,,---,0.20,VWS V14.01,2013-03-16 21:39:00,
2013-03-16 17:44:00,56.5,47.2,29.69,West,262,3.2,5.2,71,0.16,,---,0.20,VWS V14.01,2013-03-16 21:44:00,
2013-03-16 17:49:00,56.5,47.2,29.69,WSW,238,0.0,0.0,71,0.12,,---,0.20,VWS V14.01,2013-03-16 21:49:00,
2013-03-16 17:54:00,56.5,47.2,29.69,WNW,285,0.0,0.0,71,0.08,,---,0.20,VWS V14.01,2013-03-16 21:54:00,
2013-03-16 17:59:00,56.5,47.2,29.69,WNW,298,0.0,0.0,71,0.04,,---,0.20,VWS V14.01,2013-03-16 21:59:00,
2013-03-16 18:05:00,56.5,47.7,29.69,SW,233,0.0,0.0,72,0.04,,---,0.20,VWS V14.01,2013-03-16 22:05:00,
2013-03-16 18:10:00,56.7,47.8,29.69,WSW,240,0.0,0.0,72,0.00,,---,0.20,VWS V14.01,2013-03-16 22:10:00,
2013-03-16 18:15:00,56.8,48.5,29.69,WSW,254,0.0,0.0,74,0.00,,---,0.20,VWS V14.01,2013-03-16 22:15:00,
2013-03-16 18:20:00,56.8,48.5,29.69,WSW,254,0.0,0.0,74,0.00,,---,0.20,VWS V14.01,2013-03-16 22:20:00,
2013-03-16 18:25:00,56.8,48.5,29.69,WSW,253,0.0,0.0,74,0.00,,---,0.20,VWS V14.01,2013-03-16 22:25:00,
2013-03-16 18:30:00,56.8,49.0,29.69,WSW,253,0.0,0.0,75,0.00,,---,0.20,VWS V14.01,2013-03-16 22:30:00,
2013-03-16 18:35:00,56.8,49.0,29.69,WSW,253,0.0,0.0,75,0.00,,---,0.20,VWS V14.01,2013-03-16 22:35:00,
2013-03-16 18:40:00,56.8,49.0,29.69,WSW,254,0.0,0.0,75,0.00,,---,0.20,VWS V14.01,2013-03-16 22:40:00,
2013-03-16 18:45:00,56.7,48.9,29.69,SSE,162,0.0,4.5,75,0.00,,---,0.20,VWS V14.01,2013-03-16 22:45:00,
2013-03-16 18:50:00,56.3,48.5,29.69,SSE,162,0.0,0.0,75,0.00,,---,0.20,VWS V14.01,2013-03-16 22:50:00,
2013-03-16 18:55:00,56.1,48.3,29.69,SSE,162,0.0,0.0,75,0.00,,---,0.20,VWS V14.01,2013-03-16 22:55:00,
2013-03-16 19:00:00,55.9,48.2,29.72,SSE,162,0.0,0.0,75,0.00,,---,0.20,VWS V14.01,2013-03-16 23:00:00,
2013-03-16 19:05:00,55.8,48.0,29.72,SSE,162,0.0,0.0,75,0.00,,---,0.20,VWS V14.01,2013-03-16 23:05:00,
2013-03-16 19:10:00,55.6,47.8,29.72,SSE,162,0.0,0.0,75,0.00,,---,0.20,VWS V14.01,2013-03-16 23:10:00,
2013-03-16 19:15:00,55.4,47.6,29.72,SSE,162,0.0,0.0,75,0.00,,---,0.20,VWS V14.01,2013-03-16 23:15:00,
2013-03-16 19:20:00,55.0,47.8,29.72,SSE,162,0.0,0.0,76,0.00,,---,0.20,VWS V14.01,2013-03-16 23:20:00,
2013-03-16 19:25:00,54.7,47.4,29.72,SE,128,0.0,0.0,76,0.00,,---,0.20,VWS V14.01,2013-03-16 23:25:00,
2013-03-16 19:31:00,54.5,47.3,29.72,SE,128,0.0,0.0,76,0.00,,---,0.20,VWS V14.01,2013-03-16 23:31:00,
2013-03-16 19:36:00,54.1,46.9,29.72,SE,126,0.0,0.0,76,0.00,,---,0.20,VWS V14.01,2013-03-16 23:36:00,
2013-03-16 19:41:00,53.8,46.6,29.72,NNE,16,0.0,0.0,76,0.00,,---,0.20,VWS V14.01,2013-03-16 23:41:00,
2013-03-16 19:46:00,53.2,46.5,29.72,NNE,23,0.0,0.0,78,0.00,,---,0.20,VWS V14.01,2013-03-16 23:46:00,
2013-03-16 19:51:00,52.9,46.2,29.72,NE,35,0.0,0.0,78,0.00,,---,0.20,VWS V14.01,2013-03-16 23:51:00,
2013-03-16 19:56:00,52.5,45.8,29.72,NE,35,0.0,0.0,78,0.00,,---,0.20,VWS V14.01,2013-03-16 23:56:00,
2013-03-16 20:01:00,52.2,45.5,29.75,NE,35,0.0,0.0,78,0.00,,---,0.20,VWS V14.01,2013-03-17 00:01:00,
2013-03-16 20:06:00,51.8,45.1,29.75,NE,35,0.0,0.0,78,0.00,,---,0.20,VWS V14.01,2013-03-17 00:06:00,
2013-03-16 20:11:00,51.6,45.4,29.75,NE,35,0.0,0.0,79,0.00,,---,0.20,VWS V14.01,2013-03-17 00:11:00,
2013-03-16 20:17:00,51.3,45.1,29.75,NE,35,0.0,0.0,79,0.00,,---,0.20,VWS V14.01,2013-03-17 00:17:00,
2013-03-16 20:22:00,51.1,44.9,29.75,NE,35,0.0,0.0,79,0.00,,---,0.20,VWS V14.01,2013-03-17 00:22:00,
2013-03-16 20:27:00,50.9,44.7,29.78,NE,35,0.0,0.0,79,0.00,,---,0.20,VWS V14.01,2013-03-17 00:27:00,
2013-03-16 20:32:00,50.7,44.5,29.78,NE,35,0.0,0.0,79,0.00,,---,0.20,VWS V14.01,2013-03-17 00:32:00,
2013-03-16 20:37:00,50.4,44.2,29.78,NE,36,0.0,0.0,79,0.00,,---,0.20,VWS V14.01,2013-03-17 00:37:00,
2013-03-16 20:42:00,50.2,44.0,29.78,NE,45,0.0,3.2,79,0.00,,---,0.20,VWS V14.01,2013-03-17 00:42:00,
2013-03-16 20:47:00,50.0,43.8,29.78,ESE,118,4.5,4.5,79,0.00,,---,0.20,VWS V14.01,2013-03-17 00:47:00,
2013-03-16 20:52:00,49.8,44.1,29.78,SE,140,5.2,5.2,81,0.00,,---,0.20,VWS V14.01,2013-03-17 00:52:00,
2013-03-16 20:57:00,49.6,43.9,29.78,SE,126,0.0,0.0,81,0.00,,---,0.20,VWS V14.01,2013-03-17 00:57:00,
2013-03-16 21:02:00,49.5,43.8,29.78,SE,140,4.5,4.5,81,0.00,,---,0.20,VWS V14.01,2013-03-17 01:02:00,
2013-03-16 21:07:00,49.5,44.2,29.78,SE,145,4.5,5.2,82,0.00,,---,0.20,VWS V14.01,2013-03-17 01:07:00,
2013-03-16 21:12:00,49.5,44.2,29.78,SE,144,3.9,3.9,82,0.00,,---,0.20,VWS V14.01,2013-03-17 01:12:00,
2013-03-16 21:17:00,49.3,44.0,29.78,SE,144,0.0,0.0,82,0.00,,---,0.20,VWS V14.01,2013-03-17 01:17:00,
2013-03-16 21:23:00,49.3,44.0,29.78,SSE,152,0.0,0.0,82,0.00,,---,0.20,VWS V14.01,2013-03-17 01:23:00,
2013-03-16 21:28:00,49.1,43.8,29.81,SE,141,5.8,5.8,82,0.00,,---,0.20,VWS V14.01,2013-03-17 01:28:00,
2013-03-16 21:33:00,49.1,43.8,29.81,SSE,151,3.9,5.8,82,0.00,,---,0.20,VWS V14.01,2013-03-17 01:33:00,
2013-03-16 21:38:00,49.1,43.8,29.81,SSE,148,3.9,4.5,82,0.00,,---,0.20,VWS V14.01,2013-03-17 01:38:00,
2013-03-16 21:43:00,49.1,44.3,29.81,SSE,148,0.0,0.0,83,0.00,,---,0.20,VWS V14.01,2013-03-17 01:43:00,
2013-03-16 21:48:00,49.1,44.3,29.81,SSE,148,0.0,0.0,83,0.00,,---,0.20,VWS V14.01,2013-03-17 01:48:00,
2013-03-16 21:53:00,49.1,44.3,29.81,SSE,166,0.0,0.0,83,0.00,,---,0.20,VWS V14.01,2013-03-17 01:53:00,
2013-03-16 21:58:00,49.1,44.3,29.81,SE,146,3.9,5.2,83,0.00,,---,0.20,VWS V14.01,2013-03-17 01:58:00,
2013-03-16 22:03:00,49.1,44.3,29.81,SE,145,0.0,0.0,83,0.00,,---,0.20,VWS V14.01,2013-03-17 02:03:00,
2013-03-16 22:08:00,48.9,44.1,29.81,SE,145,3.9,3.9,83,0.00,,---,0.20,VWS V14.01,2013-03-17 02:08:00,
2013-03-16 22:13:00,48.7,43.9,29.81,SE,145,0.0,0.0,83,0.00,,---,0.20,VWS V14.01,2013-03-17 02:13:00,
2013-03-16 22:18:00,48.6,43.8,29.81,NNE,21,3.9,7.1,83,0.00,,---,0.20,VWS V14.01,2013-03-17 02:18:00,
2013-03-16 22:23:00,48.6,43.8,29.81,NE,43,5.8,7.1,83,0.00,,---,0.20,VWS V14.01,2013-03-17 02:23:00,
2013-03-16 22:28:00,48.6,44.2,29.84,North,11,0.0,5.8,85,0.00,,---,0.20,VWS V14.01,2013-03-17 02:28:00,
2013-03-16 22:33:00,48.4,44.0,29.84,NNE,23,3.9,3.9,85,0.00,,---,0.20,VWS V14.01,2013-03-17 02:33:00,
2013-03-16 22:38:00,48.0,43.7,29.84,NNE,32,5.8,5.8,85,0.00,,---,0.20,VWS V14.01,2013-03-17 02:38:00,
2013-03-16 22:44:00,47.3,42.5,29.84,NE,51,3.2,3.9,83,0.00,,---,0.20,VWS V14.01,2013-03-17 02:44:00,
2013-03-16 22:49:00,46.4,41.2,29.84,NNE,14,3.9,4.5,82,0.00,,---,0.20,VWS V14.01,2013-03-17 02:49:00,
2013-03-16 22:54:00,45.9,41.1,29.84,ESE,103,3.9,4.5,83,0.00,,---,0.20,VWS V14.01,2013-03-17 02:54:00,
2013-03-16 22:59:00,45.3,40.6,29.87,NE,36,3.2,3.9,83,0.00,,---,0.20,VWS V14.01,2013-03-17 02:59:00,
2013-03-16 23:04:00,45.0,40.2,29.87,NNE,24,3.9,5.8,83,0.00,,---,0.20,VWS V14.01,2013-03-17 03:04:00,
2013-03-16 23:09:00,44.6,40.3,29.87,North,357,5.8,5.8,85,0.00,,---,0.20,VWS V14.01,2013-03-17 03:09:00,
2013-03-16 23:14:00,44.4,40.1,29.87,North,0,4.5,5.8,85,0.00,,---,0.20,VWS V14.01,2013-03-17 03:14:00,
2013-03-16 23:19:00,44.1,39.8,29.87,NNE,17,0.0,0.0,85,0.00,,---,0.20,VWS V14.01,2013-03-17 03:19:00,
2013-03-16 23:24:00,43.7,39.4,29.87,North,0,3.2,3.2,85,0.00,,---,0.20,VWS V14.01,2013-03-17 03:24:00,
2013-03-16 23:29:00,43.7,39.4,29.87,NNE,27,3.9,4.5,85,0.00,,---,0.20,VWS V14.01,2013-03-17 03:29:00,
2013-03-16 23:34:00,43.3,39.1,29.87,North,10,4.5,4.5,85,0.00,,---,0.20,VWS V14.01,2013-03-17 03:34:00,
2013-03-16 23:39:00,43.0,38.7,29.87,NNE,31,3.9,3.9,85,0.00,,---,0.20,VWS V14.01,2013-03-17 03:39:00,
2013-03-16 23:45:00,42.8,38.5,29.87,NNE,30,0.0,0.0,85,0.00,,---,0.20,VWS V14.01,2013-03-17 03:45:00,
2013-03-16 23:50:00,42.8,38.5,29.87,East,84,0.0,0.0,85,0.00,,---,0.20,VWS V14.01,2013-03-17 03:50:00,
2013-03-16 23:55:00,42.6,38.4,29.87,East,84,0.0,0.0,85,0.00,,---,0.20,VWS V14.01,2013-03-17 03:55:00,